createdAt,value
2018-09-02T00:02:11.470Z,68.61
2018-09-02T00:04:40.360Z,68.48
2018-09-02T00:07:09.255Z,68.62
2018-09-02T00:09:38.136Z,68.87
2018-09-02T00:12:07.010Z,69.15
2018-09-02T00:14:35.920Z,68.62
2018-09-02T00:17:04.790Z,68.13
2018-09-02T00:19:33.650Z,67.89
2018-09-02T00:22:02.503Z,69.08
2018-09-02T00:24:31.390Z,69.43
2018-09-02T00:27:00.230Z,69.60
2018-09-02T00:29:29.060Z,69.90
2018-09-02T00:31:57.897Z,69.81
2018-09-02T00:34:26.733Z,70.06
2018-09-02T00:36:55.592Z,70.40
2018-09-02T00:39:24.438Z,69.89
2018-09-02T00:41:53.339Z,70.55
2018-09-02T00:44:22.194Z,70.82
2018-09-02T00:46:51.109Z,70.96
2018-09-02T00:49:19.992Z,70.13
2018-09-02T00:51:48.870Z,70.94
2018-09-02T00:54:17.724Z,70.92
2018-09-02T00:56:46.685Z,70.20
2018-09-02T00:59:15.510Z,71.10
2018-09-02T01:01:44.344Z,71.06
2018-09-02T01:04:13.210Z,71.15
2018-09-02T01:06:42.135Z,71.30
2018-09-02T01:09:11.004Z,71.27
2018-09-02T01:11:39.863Z,71.41
2018-09-02T01:14:09.189Z,71.52
2018-09-02T01:16:38.072Z,71.58
2018-09-02T01:19:06.960Z,71.80
2018-09-02T01:21:35.831Z,71.91
2018-09-02T01:24:04.719Z,72.19
2018-09-02T01:26:33.555Z,72.19
2018-09-02T01:29:02.471Z,72.18
2018-09-02T01:31:31.314Z,71.84
2018-09-02T01:34:00.212Z,72.63
2018-09-02T01:36:29.123Z,72.78
2018-09-02T01:38:57.983Z,72.06
2018-09-02T01:41:26.867Z,72.88
2018-09-02T01:43:55.779Z,72.78
2018-09-02T01:46:24.657Z,72.82
2018-09-02T01:48:53.537Z,73.01
2018-09-02T01:51:22.388Z,73.09
2018-09-02T01:53:51.250Z,73.24
2018-09-02T01:56:20.130Z,73.51
2018-09-02T01:58:49.011Z,73.49
2018-09-02T02:01:17.879Z,73.94
2018-09-02T02:03:46.778Z,73.97
2018-09-02T02:06:15.619Z,74.03
2018-09-02T02:08:44.495Z,74.15
2018-09-02T02:11:13.385Z,74.43
2018-09-02T02:13:42.271Z,74.47
2018-09-02T02:16:11.157Z,74.60
2018-09-02T02:18:40.041Z,74.62
2018-09-02T02:21:08.940Z,74.72
2018-09-02T02:23:37.810Z,74.19
2018-09-02T02:26:06.637Z,75.50
2018-09-02T02:28:35.516Z,75.29
2018-09-02T02:31:04.672Z,75.22
2018-09-02T02:33:33.563Z,75.12
2018-09-02T02:36:02.455Z,75.26
2018-09-02T02:38:31.298Z,75.49
2018-09-02T02:41:00.172Z,75.72
2018-09-02T02:43:29.024Z,75.61
2018-09-02T02:45:57.876Z,75.69
2018-09-02T02:48:26.757Z,75.81
2018-09-02T02:50:55.669Z,75.95
2018-09-02T02:53:24.574Z,76.08
2018-09-02T02:55:53.412Z,76.09
2018-09-02T02:58:22.311Z,76.38
2018-09-02T03:00:51.156Z,76.39
2018-09-02T03:03:20.011Z,76.59
2018-09-02T03:05:48.913Z,76.61
2018-09-02T03:08:17.845Z,76.82
2018-09-02T03:10:46.748Z,76.66
2018-09-02T03:13:15.611Z,76.56
2018-09-02T03:15:44.485Z,76.74
2018-09-02T03:18:13.345Z,76.81
2018-09-02T03:20:42.224Z,76.63
2018-09-02T03:23:11.093Z,76.63
2018-09-02T03:25:39.977Z,76.66
2018-09-02T03:28:08.907Z,76.55
2018-09-02T03:30:37.794Z,76.65
2018-09-02T03:33:06.681Z,76.62
2018-09-02T03:35:35.573Z,76.63
2018-09-02T03:38:04.453Z,76.81
2018-09-02T03:40:33.329Z,77.02
2018-09-02T03:43:02.178Z,76.90
2018-09-02T03:45:31.039Z,77.11
2018-09-02T03:47:59.913Z,77.08
2018-09-02T03:50:28.779Z,76.86
2018-09-02T03:52:57.632Z,76.83
2018-09-02T03:55:26.483Z,77.03
2018-09-02T03:57:55.392Z,77.21
2018-09-02T04:00:24.291Z,76.69
2018-09-02T04:02:53.180Z,77.48
2018-09-02T04:05:22.047Z,77.13
2018-09-02T04:07:50.939Z,76.38
2018-09-02T04:10:19.855Z,77.10
2018-09-02T04:12:48.740Z,76.91
2018-09-02T04:15:17.659Z,77.08
2018-09-02T04:17:46.538Z,77.12
2018-09-02T04:20:20.466Z,76.98
2018-09-02T04:22:49.352Z,77.08
2018-09-02T04:25:18.229Z,77.05
2018-09-02T04:27:47.152Z,77.01
2018-09-02T04:30:16.027Z,77.17
2018-09-02T04:32:44.904Z,77.36
2018-09-02T04:35:13.800Z,77.33
2018-09-02T04:37:42.743Z,77.67
2018-09-02T04:40:11.726Z,77.43
2018-09-02T04:42:40.647Z,77.79
2018-09-02T04:45:09.723Z,77.79
2018-09-02T04:47:38.542Z,77.98
2018-09-02T04:50:16.007Z,78.00
2018-09-02T04:52:44.932Z,77.99
2018-09-02T04:55:13.806Z,78.25
2018-09-02T04:57:43.594Z,78.28
2018-09-02T05:00:12.581Z,78.37
2018-09-02T05:02:41.441Z,78.44
2018-09-02T05:05:10.313Z,78.10
2018-09-02T05:07:39.202Z,78.14
2018-09-02T05:10:08.148Z,78.14
2018-09-02T05:12:37.062Z,78.34
2018-09-02T05:15:05.981Z,78.14
2018-09-02T05:17:35.230Z,78.01
2018-09-02T05:20:04.183Z,78.08
2018-09-02T05:22:33.043Z,77.32
2018-09-02T05:25:01.919Z,78.00
2018-09-02T05:27:30.777Z,78.37
2018-09-02T05:29:59.652Z,78.25
2018-09-02T05:32:28.522Z,78.17
2018-09-02T05:34:57.429Z,78.17
2018-09-02T05:37:26.297Z,78.01
2018-09-02T05:39:55.206Z,78.16
2018-09-02T05:42:24.090Z,78.26
2018-09-02T05:44:52.969Z,78.21
2018-09-02T05:47:21.860Z,78.18
2018-09-02T05:49:50.748Z,77.85
2018-09-02T05:52:19.631Z,78.25
2018-09-02T05:54:48.531Z,78.22
2018-09-02T05:57:17.421Z,78.10
2018-09-02T05:59:46.316Z,78.18
2018-09-02T06:02:15.190Z,78.34
2018-09-02T06:04:44.118Z,78.33
2018-09-02T06:07:13.016Z,78.49
2018-09-02T06:09:41.863Z,78.42
2018-09-02T06:12:10.733Z,78.34
2018-09-02T06:14:39.617Z,78.28
2018-09-02T06:17:08.483Z,78.24
2018-09-02T06:19:37.337Z,78.08
2018-09-02T06:22:06.229Z,78.18
2018-09-02T06:24:35.120Z,78.06
2018-09-02T06:27:03.986Z,77.83
2018-09-02T06:29:32.857Z,78.00
2018-09-02T06:32:01.803Z,77.77
2018-09-02T06:34:30.655Z,77.88
2018-09-02T06:36:59.561Z,77.68
2018-09-02T06:39:28.524Z,77.57
2018-09-02T06:41:57.334Z,77.54
2018-09-02T06:44:26.234Z,77.44
2018-09-02T06:46:55.117Z,77.05
2018-09-02T06:49:23.949Z,76.79
2018-09-02T06:51:52.838Z,76.27
2018-09-02T06:54:22.032Z,75.68
2018-09-02T06:56:50.902Z,74.84
2018-09-02T06:59:19.785Z,74.20
2018-09-02T07:01:48.656Z,74.17
2018-09-02T07:04:17.494Z,73.81
2018-09-02T07:06:46.359Z,72.93
2018-09-02T07:09:15.232Z,72.83
2018-09-02T07:11:44.141Z,71.86
2018-09-02T07:14:13.060Z,69.95
2018-09-02T07:16:41.912Z,69.54
2018-09-02T07:19:10.790Z,69.31
2018-09-02T07:21:39.676Z,69.42
2018-09-02T07:24:08.525Z,69.51
2018-09-02T07:26:37.387Z,69.67
2018-09-02T07:29:06.291Z,69.49
2018-09-02T07:31:35.282Z,69.46
2018-09-02T07:34:04.048Z,69.73
2018-09-02T07:36:32.932Z,69.30
2018-09-02T07:39:01.799Z,68.87
2018-09-02T07:41:30.656Z,68.45
2018-09-02T07:43:59.507Z,67.86
2018-09-02T07:46:28.367Z,66.88
2018-09-02T07:48:57.211Z,62.49
2018-09-02T07:51:26.099Z,58.91
2018-09-02T07:53:54.962Z,58.79
2018-09-02T07:56:23.867Z,57.93
2018-09-02T07:58:52.744Z,58.11
2018-09-02T08:01:21.633Z,57.70
2018-09-02T08:03:50.535Z,56.92
2018-09-02T08:06:19.443Z,55.66
2018-09-02T08:08:48.239Z,50.46
2018-09-02T08:11:17.071Z,44.96
2018-09-02T08:13:45.912Z,43.31
2018-09-02T08:16:14.745Z,44.23
2018-09-02T08:18:43.647Z,43.67
2018-09-02T08:21:12.480Z,42.87
2018-09-02T08:23:41.331Z,41.11
2018-09-02T08:26:10.193Z,42.26
2018-09-02T08:28:39.144Z,41.26
2018-09-02T08:31:08.016Z,40.08
2018-09-02T08:33:36.885Z,37.96
2018-09-02T08:36:05.723Z,38.54
2018-09-02T08:38:34.644Z,40.00
2018-09-02T08:41:03.464Z,42.13
2018-09-02T08:43:32.348Z,44.00
2018-09-02T08:46:01.194Z,45.13
2018-09-02T08:48:30.112Z,45.91
2018-09-02T08:50:59.440Z,47.16
2018-09-02T08:53:33.953Z,49.34
2018-09-02T08:56:06.100Z,50.24
2018-09-02T08:58:35.329Z,50.99
2018-09-02T09:01:09.754Z,50.79
2018-09-02T09:03:39.080Z,51.72
2018-09-02T09:06:10.891Z,51.41
2018-09-02T09:08:45.132Z,50.55
2018-09-02T09:11:18.153Z,51.53
2018-09-02T09:13:50.147Z,52.51
2018-09-02T09:16:22.865Z,52.30
2018-09-02T09:18:51.946Z,51.48
2018-09-02T09:21:21.047Z,50.91
2018-09-02T09:23:50.152Z,49.84
2018-09-02T09:26:19.266Z,48.29
2018-09-02T09:28:48.448Z,46.18
2018-09-02T09:31:17.888Z,46.24
2018-09-02T09:33:48.907Z,42.14
2018-09-02T09:36:18.048Z,39.76
2018-09-02T09:38:47.606Z,37.98
2018-09-02T09:41:17.107Z,37.35
2018-09-02T09:43:50.280Z,38.25
2018-09-02T09:46:19.727Z,33.64
2018-09-02T09:48:48.986Z,31.11
2018-09-02T09:51:18.277Z,30.34
2018-09-02T09:53:47.359Z,29.62
2018-09-02T09:56:19.403Z,28.92
2018-09-02T09:58:48.887Z,27.80
2018-09-02T10:01:18.420Z,26.65
2018-09-02T10:03:47.989Z,26.03
2018-09-02T10:06:17.239Z,26.34
2018-09-02T10:08:48.081Z,25.48
2018-09-02T10:11:18.949Z,25.95
2018-09-02T10:13:51.814Z,24.49
2018-09-02T10:16:20.920Z,24.17
2018-09-02T10:18:50.074Z,22.04
2018-09-02T10:21:27.117Z,23.85
2018-09-02T10:23:56.341Z,24.90
2018-09-02T10:26:25.863Z,24.40
2018-09-02T10:28:55.278Z,25.03
2018-09-02T10:31:26.604Z,24.12
2018-09-02T10:33:58.520Z,23.07
2018-09-02T10:36:27.653Z,22.98
2018-09-02T10:38:59.979Z,20.88
2018-09-02T10:41:29.430Z,22.36
2018-09-02T10:44:02.624Z,22.20
2018-09-02T10:46:37.924Z,23.06
2018-09-02T10:49:07.050Z,23.76
2018-09-02T10:51:37.149Z,23.19
2018-09-02T10:54:09.762Z,22.13
2018-09-02T10:56:42.595Z,20.91
2018-09-02T10:59:12.501Z,22.26
2018-09-02T11:01:42.181Z,23.17
2018-09-02T11:04:21.416Z,24.34
2018-09-02T11:06:53.552Z,24.84
2018-09-02T11:09:23.189Z,25.79
2018-09-02T11:11:55.104Z,25.03
2018-09-02T11:14:24.236Z,26.25
2018-09-02T11:16:56.686Z,24.71
2018-09-02T11:19:23.190Z,25.60
2018-09-02T11:21:52.755Z,24.13
2018-09-02T11:24:22.242Z,24.67
2018-09-02T11:26:56.113Z,25.24
2018-09-02T11:29:31.815Z,26.16
2018-09-02T11:32:02.845Z,26.97
2018-09-02T11:34:31.933Z,28.56
2018-09-02T11:37:01.178Z,30.22
2018-09-02T11:39:32.971Z,31.30
2018-09-02T11:42:05.310Z,30.56
2018-09-02T11:44:37.452Z,31.66
2018-09-02T11:47:06.678Z,31.83
2018-09-02T11:49:36.143Z,30.25
2018-09-02T11:52:07.799Z,31.26
2018-09-02T11:54:37.252Z,31.23
2018-09-02T11:57:06.140Z,29.81
2018-09-02T11:59:35.662Z,29.19
2018-09-02T12:02:04.983Z,27.61
2018-09-02T12:04:34.450Z,29.02
2018-09-02T12:07:04.439Z,28.79
2018-09-02T12:09:34.172Z,29.98
2018-09-02T12:12:03.143Z,29.90
2018-09-02T12:14:35.554Z,30.70
2018-09-02T12:17:04.563Z,29.96
2018-09-02T12:19:33.693Z,29.91
2018-09-02T12:22:03.291Z,29.28
2018-09-02T12:24:32.743Z,29.96
2018-09-02T12:27:02.080Z,29.27
2018-09-02T12:29:34.051Z,30.18
2018-09-02T12:32:03.202Z,29.74
2018-09-02T12:34:35.375Z,30.90
2018-09-02T12:37:07.797Z,30.49
2018-09-02T12:39:39.356Z,30.99
2018-09-02T12:42:08.628Z,29.62
2018-09-02T12:44:39.413Z,30.30
2018-09-02T12:47:10.143Z,30.35
2018-09-02T12:49:39.606Z,30.23
2018-09-02T12:52:12.020Z,30.01
2018-09-02T12:54:42.525Z,28.82
2018-09-02T12:57:16.201Z,29.95
2018-09-02T12:59:48.079Z,29.85
2018-09-02T13:02:21.473Z,30.33
2018-09-02T13:04:53.321Z,30.05
2018-09-02T13:07:25.513Z,30.81
2018-09-02T13:09:54.904Z,29.92
2018-09-02T13:12:26.616Z,30.57
2018-09-02T13:14:53.445Z,30.91
2018-09-02T13:17:23.067Z,30.31
2018-09-02T13:19:52.327Z,29.94
2018-09-02T13:22:23.955Z,29.70
2018-09-02T13:24:53.125Z,29.97
2018-09-02T13:27:22.408Z,29.76
2018-09-02T13:29:54.297Z,29.47
2018-09-02T13:32:23.465Z,29.50
2018-09-02T13:34:52.935Z,30.64
2018-09-02T13:37:22.540Z,29.85
2018-09-02T13:39:52.635Z,30.35
2018-09-02T13:42:21.722Z,31.04
2018-09-02T13:44:50.943Z,31.08
2018-09-02T13:47:20.419Z,32.16
2018-09-02T13:49:49.515Z,31.56
2018-09-02T13:52:19.061Z,31.02
2018-09-02T13:54:48.270Z,30.47
2018-09-02T13:57:17.340Z,30.37
2018-09-02T13:59:46.458Z,30.98
2018-09-02T14:02:18.194Z,31.08
2018-09-02T14:04:47.738Z,30.90
2018-09-02T14:07:19.750Z,31.57
2018-09-02T14:09:49.131Z,30.94
2018-09-02T14:12:18.634Z,31.05
2018-09-02T14:14:50.113Z,30.80
2018-09-02T14:17:20.628Z,30.68
2018-09-02T14:19:52.805Z,30.50
2018-09-02T14:22:22.531Z,30.51
2018-09-02T14:24:53.152Z,30.17
2018-09-02T14:27:22.736Z,30.62
2018-09-02T14:29:51.912Z,30.75
2018-09-02T14:32:21.798Z,30.01
2018-09-02T14:34:50.641Z,30.03
2018-09-02T14:37:19.425Z,30.83
2018-09-02T14:39:48.268Z,30.84
2018-09-02T14:42:17.125Z,30.59
2018-09-02T14:44:45.968Z,29.93
2018-09-02T14:47:14.805Z,30.01
2018-09-02T14:49:43.670Z,30.52
2018-09-02T14:52:12.504Z,30.58
2018-09-02T14:54:41.351Z,30.90
2018-09-02T14:57:10.196Z,31.41
2018-09-02T14:59:39.071Z,30.18
2018-09-02T15:02:07.910Z,30.38
2018-09-02T15:04:36.823Z,29.93
2018-09-02T15:07:05.698Z,31.26
2018-09-02T15:09:34.573Z,30.57
2018-09-02T15:12:03.445Z,30.48
2018-09-02T15:14:32.327Z,31.02
2018-09-02T15:17:01.190Z,31.12
2018-09-02T15:19:30.026Z,31.63
2018-09-02T15:21:58.892Z,32.06
2018-09-02T15:24:27.750Z,31.44
2018-09-02T15:26:56.594Z,30.59
2018-09-02T15:29:25.426Z,31.79
2018-09-02T15:31:54.282Z,31.36
2018-09-02T15:34:23.151Z,31.37
2018-09-02T15:36:52.200Z,31.30
2018-09-02T15:39:21.057Z,31.87
2018-09-02T15:41:49.911Z,32.06
2018-09-02T15:44:18.771Z,31.26
2018-09-02T15:46:47.692Z,31.27
2018-09-02T15:49:16.511Z,31.96
2018-09-02T15:51:45.357Z,31.97
2018-09-02T15:54:14.194Z,32.29
2018-09-02T15:56:43.045Z,32.14
2018-09-02T15:59:11.873Z,32.75
2018-09-02T16:01:40.755Z,32.79
2018-09-02T16:04:09.601Z,31.99
2018-09-02T16:06:38.471Z,32.77
2018-09-02T16:09:08.965Z,32.79
2018-09-02T16:11:37.919Z,33.21
2018-09-02T16:14:07.322Z,33.17
2018-09-02T16:16:36.201Z,32.53
2018-09-02T16:19:05.119Z,33.08
2018-09-02T16:21:33.997Z,33.18
2018-09-02T16:24:02.921Z,32.85
2018-09-02T16:26:31.797Z,33.79
2018-09-02T16:29:00.685Z,34.05
2018-09-02T16:31:29.557Z,33.98
2018-09-02T16:33:58.406Z,34.43
2018-09-02T16:36:27.273Z,34.12
2018-09-02T16:38:56.143Z,33.98
2018-09-02T16:41:25.066Z,34.13
2018-09-02T16:43:53.927Z,33.93
2018-09-02T16:46:22.800Z,34.15
2018-09-02T16:48:51.699Z,33.55
2018-09-02T16:51:20.571Z,33.76
2018-09-02T16:53:49.423Z,33.80
2018-09-02T16:56:18.281Z,35.04
2018-09-02T16:58:47.177Z,35.20
2018-09-02T17:01:16.026Z,35.84
2018-09-02T17:03:48.193Z,35.92
2018-09-02T17:06:17.120Z,35.47
2018-09-02T17:08:45.902Z,36.09
2018-09-02T17:11:14.740Z,35.39
2018-09-02T17:13:43.617Z,35.93
2018-09-02T17:16:12.474Z,35.60
2018-09-02T17:18:41.474Z,35.72
2018-09-02T17:21:10.348Z,36.52
2018-09-02T17:23:39.268Z,36.58
2018-09-02T17:26:08.207Z,37.26
2018-09-02T17:28:37.037Z,36.81
2018-09-02T17:31:05.927Z,37.54
2018-09-02T17:33:34.815Z,37.86
2018-09-02T17:36:03.688Z,37.73
2018-09-02T17:38:32.561Z,38.05
2018-09-02T17:41:01.408Z,38.81
2018-09-02T17:43:30.275Z,38.84
2018-09-02T17:45:59.324Z,39.17
2018-09-02T17:48:28.035Z,39.51
2018-09-02T17:50:56.919Z,39.39
2018-09-02T17:53:25.815Z,39.94
2018-09-02T17:55:54.812Z,40.16
2018-09-02T17:58:23.616Z,40.27
2018-09-02T18:00:54.279Z,41.08
2018-09-02T18:03:23.143Z,40.33
2018-09-02T18:05:52.039Z,41.12
2018-09-02T18:08:20.963Z,41.46
2018-09-02T18:10:49.833Z,41.91
2018-09-02T18:13:18.724Z,42.29
2018-09-02T18:15:47.659Z,43.03
2018-09-02T18:18:16.482Z,43.80
2018-09-02T18:20:45.369Z,43.94
2018-09-02T18:23:14.269Z,44.31
2018-09-02T18:25:43.157Z,43.65
2018-09-02T18:28:14.958Z,44.14
2018-09-02T18:30:43.822Z,44.80
2018-09-02T18:33:12.697Z,44.98
2018-09-02T18:35:41.540Z,45.81
2018-09-02T18:38:10.418Z,45.54
2018-09-02T18:40:39.271Z,45.96
2018-09-02T18:43:08.171Z,45.90
2018-09-02T18:45:37.050Z,46.04
2018-09-02T18:48:05.880Z,46.30
2018-09-02T18:50:34.737Z,46.38
2018-09-02T18:53:03.612Z,46.55
2018-09-02T18:55:32.497Z,47.10
2018-09-02T18:58:01.392Z,47.48
2018-09-02T19:00:30.285Z,48.40
2018-09-02T19:02:59.199Z,48.56
2018-09-02T19:05:28.314Z,48.89
2018-09-02T19:07:57.157Z,48.75
2018-09-02T19:10:26.103Z,48.56
2018-09-02T19:12:54.960Z,48.92
2018-09-02T19:15:23.844Z,48.87
2018-09-02T19:17:52.739Z,49.32
2018-09-02T19:20:21.624Z,49.81
2018-09-02T19:22:50.541Z,49.69
2018-09-02T19:25:19.448Z,50.23
2018-09-02T19:27:48.299Z,49.84
2018-09-02T19:30:17.181Z,50.00
2018-09-02T19:32:46.071Z,50.03
2018-09-02T19:35:14.983Z,49.90
2018-09-02T19:37:43.834Z,50.08
2018-09-02T19:40:13.026Z,50.03
2018-09-02T19:42:41.853Z,50.26
2018-09-02T19:45:10.689Z,50.33
2018-09-02T19:47:39.579Z,49.89
2018-09-02T19:50:08.521Z,50.69
2018-09-02T19:52:37.409Z,50.70
2018-09-02T19:55:06.386Z,50.40
2018-09-02T19:57:35.243Z,50.80
2018-09-02T20:00:04.110Z,50.85
2018-09-02T20:02:32.973Z,51.08
2018-09-02T20:05:01.969Z,51.00
2018-09-02T20:07:30.835Z,51.49
2018-09-02T20:09:59.736Z,51.83
2018-09-02T20:12:28.608Z,52.23
2018-09-02T20:14:57.449Z,52.40
2018-09-02T20:17:26.317Z,52.71
2018-09-02T20:19:55.239Z,52.83
2018-09-02T20:22:24.053Z,53.07
2018-09-02T20:24:52.968Z,52.88
2018-09-02T20:27:21.817Z,53.05
2018-09-02T20:29:50.690Z,53.20
2018-09-02T20:32:19.567Z,53.42
2018-09-02T20:34:48.406Z,53.25
2018-09-02T20:37:17.274Z,52.79
2018-09-02T20:39:46.134Z,53.21
2018-09-02T20:42:15.026Z,53.03
2018-09-02T20:44:43.876Z,53.28
2018-09-02T20:47:12.740Z,52.59
2018-09-02T20:49:41.594Z,53.08
2018-09-02T20:52:10.486Z,52.97
2018-09-02T20:54:39.377Z,53.12
2018-09-02T20:57:08.243Z,52.06
2018-09-02T20:59:37.083Z,52.67
2018-09-02T21:02:06.160Z,52.97
2018-09-02T21:04:34.992Z,52.68
2018-09-02T21:07:03.894Z,51.69
2018-09-02T21:09:32.746Z,51.58
2018-09-02T21:12:01.630Z,52.18
2018-09-02T21:14:30.504Z,52.13
2018-09-02T21:16:59.475Z,52.23
2018-09-02T21:19:28.288Z,52.10
2018-09-02T21:21:57.155Z,51.85
2018-09-02T21:24:26.067Z,51.16
2018-09-02T21:26:54.988Z,52.24
2018-09-02T21:29:23.928Z,52.62
2018-09-02T21:31:52.805Z,52.29
2018-09-02T21:34:21.674Z,51.98
2018-09-02T21:36:50.556Z,51.87
2018-09-02T21:39:19.402Z,52.11
2018-09-02T21:41:48.268Z,52.06
2018-09-02T21:44:17.122Z,52.37
2018-09-02T21:46:46.015Z,52.60
2018-09-02T21:49:14.989Z,52.35
2018-09-02T21:51:43.901Z,52.53
2018-09-02T21:54:12.784Z,52.48
2018-09-02T21:56:41.722Z,52.69
2018-09-02T21:59:10.571Z,53.07
2018-09-02T22:01:39.438Z,52.73
2018-09-02T22:04:08.351Z,53.14
2018-09-02T22:06:37.242Z,53.38
2018-09-02T22:09:15.196Z,53.13
2018-09-02T22:11:44.350Z,52.91
2018-09-02T22:14:13.863Z,52.86
2018-09-02T22:16:43.410Z,53.12
2018-09-02T22:19:12.468Z,53.34
2018-09-02T22:21:41.416Z,53.12
2018-09-02T22:24:10.320Z,53.34
2018-09-02T22:26:39.192Z,53.54
2018-09-02T22:29:08.111Z,53.51
2018-09-02T22:31:36.886Z,53.54
2018-09-02T22:34:05.776Z,53.48
2018-09-02T22:36:34.671Z,53.79
2018-09-02T22:39:05.030Z,53.85
2018-09-02T22:41:33.884Z,54.02
2018-09-02T22:44:02.756Z,54.44
2018-09-02T22:46:31.647Z,54.03
2018-09-02T22:49:00.546Z,54.77
2018-09-02T22:51:29.362Z,54.79
2018-09-02T22:53:58.233Z,54.62
2018-09-02T22:56:27.123Z,54.84
2018-09-02T22:58:55.965Z,54.97
2018-09-02T23:01:24.840Z,55.21
2018-09-02T23:03:53.704Z,55.16
2018-09-02T23:06:22.587Z,55.43
2018-09-02T23:08:51.431Z,55.40
2018-09-02T23:11:20.303Z,55.41
2018-09-02T23:13:49.183Z,55.54
2018-09-02T23:16:18.049Z,55.84
2018-09-02T23:18:46.932Z,55.94
2018-09-02T23:21:15.773Z,56.11
2018-09-02T23:23:44.916Z,56.34
2018-09-02T23:26:13.758Z,56.23
2018-09-02T23:28:42.623Z,56.92
2018-09-02T23:31:11.494Z,56.90
2018-09-02T23:33:40.377Z,56.91
2018-09-02T23:36:09.229Z,57.13
2018-09-02T23:38:38.079Z,57.45
2018-09-02T23:41:07.052Z,57.59
2018-09-02T23:43:35.956Z,57.53
2018-09-02T23:46:04.844Z,57.37
2018-09-02T23:48:33.726Z,57.74
2018-09-02T23:51:02.660Z,57.72
2018-09-02T23:53:31.506Z,57.39
2018-09-02T23:56:00.404Z,57.92
2018-09-02T23:58:29.271Z,57.59
